createdAt,value
2017-07-03T00:01:55.197Z,4.50
2017-07-03T00:04:23.490Z,4.27
2017-07-03T00:06:51.029Z,4.03
2017-07-03T00:09:18.507Z,4.30
2017-07-03T00:11:45.984Z,4.23
2017-07-03T00:14:14.268Z,3.70
2017-07-03T00:16:41.920Z,4.00
2017-07-03T00:19:09.724Z,3.90
2017-07-03T00:21:37.223Z,4.83
2017-07-03T00:24:04.721Z,4.23
2017-07-03T00:26:33.012Z,4.47
2017-07-03T00:29:00.553Z,4.00
2017-07-03T00:31:28.104Z,4.43
2017-07-03T00:33:55.647Z,4.30
2017-07-03T00:36:23.188Z,4.03
2017-07-03T00:38:50.670Z,4.33
2017-07-03T00:41:18.372Z,3.93
2017-07-03T00:43:45.917Z,3.93
2017-07-03T00:46:13.427Z,4.60
2017-07-03T00:48:40.952Z,4.40
2017-07-03T00:51:08.460Z,4.97
2017-07-03T00:53:35.982Z,4.77
2017-07-03T00:56:03.532Z,4.22
2017-07-03T00:58:31.085Z,4.30
2017-07-03T01:00:58.624Z,5.33
2017-07-03T01:03:26.149Z,4.30
2017-07-03T01:05:54.396Z,5.30
2017-07-03T01:08:22.683Z,5.23
2017-07-03T01:10:50.323Z,5.17
2017-07-03T01:13:18.570Z,5.07
2017-07-03T01:15:46.857Z,4.57
2017-07-03T01:18:14.361Z,5.03
2017-07-03T01:20:42.651Z,6.07
2017-07-03T01:23:10.224Z,4.87
2017-07-03T01:25:37.760Z,5.07
2017-07-03T01:28:05.280Z,4.45
2017-07-03T01:30:32.788Z,5.77
2017-07-03T01:33:00.299Z,4.50
2017-07-03T01:35:27.815Z,5.00
2017-07-03T01:37:55.308Z,4.68
2017-07-03T01:40:22.904Z,5.37
2017-07-03T01:42:50.393Z,4.82
2017-07-03T01:45:17.884Z,4.78
2017-07-03T01:47:45.641Z,5.80
2017-07-03T01:50:13.153Z,5.10
2017-07-03T01:52:41.421Z,4.50
2017-07-03T01:55:08.962Z,5.50
2017-07-03T01:57:37.228Z,5.30
2017-07-03T02:00:04.788Z,5.77
2017-07-03T02:02:32.537Z,6.00
2017-07-03T02:05:00.024Z,5.35
2017-07-03T02:07:27.513Z,5.50
2017-07-03T02:09:55.270Z,5.03
2017-07-03T02:12:22.812Z,5.00
2017-07-03T02:14:50.356Z,5.17
2017-07-03T02:17:17.896Z,6.72
2017-07-03T02:19:45.441Z,5.55
2017-07-03T02:22:13.197Z,5.43
2017-07-03T02:24:40.697Z,6.15
2017-07-03T02:27:09.088Z,5.47
2017-07-03T02:29:36.613Z,4.72
2017-07-03T02:32:04.191Z,5.45
2017-07-03T02:34:31.729Z,5.10
2017-07-03T02:36:59.271Z,7.00
2017-07-03T02:39:26.752Z,5.87
2017-07-03T02:41:54.260Z,6.35
2017-07-03T02:44:21.801Z,6.30
2017-07-03T02:46:49.332Z,5.97
2017-07-03T02:49:16.827Z,5.95
2017-07-03T02:51:44.352Z,6.22
2017-07-03T02:54:11.856Z,5.85
2017-07-03T02:56:39.414Z,5.80
2017-07-03T02:59:06.946Z,5.95
2017-07-03T03:01:34.491Z,5.60
2017-07-03T03:04:02.049Z,6.00
2017-07-03T03:06:29.537Z,7.30
2017-07-03T03:08:57.228Z,5.70
2017-07-03T03:11:24.777Z,6.25
2017-07-03T03:13:52.321Z,6.15
2017-07-03T03:16:19.867Z,5.80
2017-07-03T03:18:47.409Z,6.32
2017-07-03T03:21:14.948Z,7.03
2017-07-03T03:23:42.449Z,6.87
2017-07-03T03:26:09.975Z,7.40
2017-07-03T03:28:37.486Z,5.75
2017-07-03T03:31:05.048Z,5.60
2017-07-03T03:33:32.544Z,6.60
2017-07-03T03:36:00.831Z,5.78
2017-07-03T03:38:28.369Z,5.68
2017-07-03T03:40:55.868Z,5.70
2017-07-03T03:43:23.363Z,5.50
2017-07-03T03:45:50.997Z,6.03
2017-07-03T03:48:18.490Z,6.60
2017-07-03T03:50:46.087Z,7.35
2017-07-03T03:53:13.593Z,7.00
2017-07-03T03:55:42.202Z,6.35
2017-07-03T03:58:09.720Z,6.85
2017-07-03T04:00:38.018Z,6.78
2017-07-03T04:03:05.583Z,8.45
2017-07-03T04:05:33.189Z,5.68
2017-07-03T04:08:00.740Z,6.60
2017-07-03T04:10:28.246Z,5.45
2017-07-03T04:12:56.536Z,6.10
2017-07-03T04:15:24.028Z,6.40
2017-07-03T04:17:51.625Z,6.40
2017-07-03T04:20:19.173Z,6.15
2017-07-03T04:22:46.708Z,6.93
2017-07-03T04:25:14.277Z,5.90
2017-07-03T04:27:41.786Z,6.50
2017-07-03T04:30:09.337Z,6.15
2017-07-03T04:32:36.899Z,6.28
2017-07-03T04:35:04.763Z,6.30
2017-07-03T04:37:32.375Z,6.85
2017-07-03T04:39:59.928Z,5.78
2017-07-03T04:42:27.468Z,6.55
2017-07-03T04:44:55.216Z,6.40
2017-07-03T04:47:22.700Z,5.22
2017-07-03T04:49:50.207Z,6.40
2017-07-03T04:52:17.750Z,6.32
2017-07-03T04:54:45.249Z,5.30
2017-07-03T04:57:12.833Z,5.28
2017-07-03T04:59:40.582Z,5.95
2017-07-03T05:02:08.109Z,5.95
2017-07-03T05:04:35.627Z,6.57
2017-07-03T05:07:04.137Z,4.37
2017-07-03T05:09:31.680Z,5.10
2017-07-03T05:11:59.220Z,4.90
2017-07-03T05:14:26.964Z,5.95
2017-07-03T05:16:54.508Z,6.03
2017-07-03T05:19:22.001Z,5.75
2017-07-03T05:21:49.504Z,5.90
2017-07-03T05:24:17.005Z,5.68
2017-07-03T05:26:45.485Z,7.03
2017-07-03T05:29:12.987Z,6.00
2017-07-03T05:31:40.495Z,5.10
2017-07-03T05:34:08.057Z,5.73
2017-07-03T05:36:35.558Z,5.80
2017-07-03T05:39:03.065Z,5.60
2017-07-03T05:41:30.660Z,5.87
2017-07-03T05:44:03.813Z,6.60
2017-07-03T05:46:32.096Z,6.43
2017-07-03T05:48:59.845Z,5.97
2017-07-03T05:51:27.392Z,5.10
2017-07-03T05:53:54.872Z,6.50
2017-07-03T05:56:22.481Z,5.10
2017-07-03T05:58:50.018Z,5.57
2017-07-03T06:01:17.500Z,6.93
2017-07-03T06:03:45.175Z,6.27
2017-07-03T06:06:13.459Z,5.33
2017-07-03T06:08:40.959Z,5.17
2017-07-03T06:11:08.487Z,5.40
2017-07-03T06:13:36.023Z,6.10
2017-07-03T06:16:03.560Z,5.70
2017-07-03T06:18:31.048Z,6.00
2017-07-03T06:20:58.532Z,5.57
2017-07-03T06:23:26.041Z,6.07
2017-07-03T06:25:54.332Z,6.03
2017-07-03T06:28:21.872Z,5.50
2017-07-03T06:30:49.412Z,6.53
2017-07-03T06:33:16.912Z,7.00
2017-07-03T06:35:44.417Z,4.80
2017-07-03T06:38:11.957Z,4.70
2017-07-03T06:40:39.465Z,4.43
2017-07-03T06:43:06.993Z,4.60
2017-07-03T06:45:34.684Z,4.83
2017-07-03T06:48:02.247Z,4.70
2017-07-03T06:50:29.771Z,4.50
2017-07-03T06:52:57.313Z,6.20
2017-07-03T06:55:24.809Z,5.10
2017-07-03T06:57:52.392Z,5.80
2017-07-03T07:00:20.648Z,5.40
2017-07-03T07:02:48.201Z,6.07
2017-07-03T07:05:15.689Z,6.60
2017-07-03T07:07:43.242Z,6.73
2017-07-03T07:10:10.750Z,6.83
2017-07-03T07:12:38.288Z,6.80
2017-07-03T07:15:05.817Z,6.77
2017-07-03T07:17:33.302Z,7.13
2017-07-03T07:20:00.787Z,6.23
2017-07-03T07:22:28.440Z,6.40
2017-07-03T07:24:55.924Z,5.10
2017-07-03T07:27:23.424Z,4.87
2017-07-03T07:29:50.965Z,5.43
2017-07-03T07:32:18.513Z,5.57
2017-07-03T07:34:45.997Z,5.23
2017-07-03T07:37:13.533Z,5.13
2017-07-03T07:39:41.069Z,5.70
2017-07-03T07:42:08.568Z,5.10
2017-07-03T07:44:36.104Z,4.90
2017-07-03T07:47:03.601Z,3.90
2017-07-03T07:49:31.117Z,4.37
2017-07-03T07:51:58.796Z,4.33
2017-07-03T07:54:26.286Z,5.07
2017-07-03T07:56:54.541Z,5.30
2017-07-03T07:59:22.800Z,4.07
2017-07-03T08:01:51.084Z,4.03
2017-07-03T08:04:18.628Z,4.47
2017-07-03T08:06:46.212Z,4.10
2017-07-03T08:09:13.727Z,3.87
2017-07-03T08:11:41.465Z,4.80
2017-07-03T08:14:08.966Z,3.90
2017-07-03T08:16:36.485Z,4.70
2017-07-03T08:19:05.630Z,4.63
2017-07-03T08:21:33.173Z,4.30
2017-07-03T08:24:00.658Z,3.43
2017-07-03T08:26:28.154Z,4.03
2017-07-03T08:28:55.643Z,3.30
2017-07-03T08:31:23.345Z,3.70
2017-07-03T08:33:50.829Z,4.03
2017-07-03T08:36:18.323Z,4.20
2017-07-03T08:38:45.852Z,4.67
2017-07-03T08:41:14.116Z,3.30
2017-07-03T08:43:42.382Z,4.80
2017-07-03T08:46:10.644Z,3.33
2017-07-03T08:48:38.931Z,2.50
2017-07-03T08:51:06.476Z,3.10
2017-07-03T08:53:33.962Z,3.00
2017-07-03T08:56:01.544Z,3.33
2017-07-03T08:58:29.085Z,2.70
2017-07-03T09:00:56.565Z,3.30
2017-07-03T09:03:24.076Z,3.50
2017-07-03T09:05:51.612Z,4.00
2017-07-03T09:08:19.092Z,3.00
2017-07-03T09:10:46.800Z,2.70
2017-07-03T09:13:14.366Z,2.50
2017-07-03T09:15:41.899Z,2.60
2017-07-03T09:18:09.403Z,3.10
2017-07-03T09:20:36.900Z,2.90
2017-07-03T09:23:04.452Z,3.00
2017-07-03T09:25:31.964Z,3.30
2017-07-03T09:27:59.446Z,2.83
2017-07-03T09:30:26.948Z,3.80
2017-07-03T09:32:54.489Z,3.00
2017-07-03T09:35:22.032Z,2.40
2017-07-03T09:37:49.577Z,2.87
2017-07-03T09:40:17.335Z,2.70
2017-07-03T09:42:44.821Z,2.60
2017-07-03T09:45:12.307Z,2.50
2017-07-03T09:47:40.062Z,3.63
2017-07-03T09:50:07.563Z,2.40
2017-07-03T09:52:35.065Z,3.07
2017-07-03T09:55:02.689Z,2.23
2017-07-03T09:57:30.229Z,2.20
2017-07-03T09:59:57.779Z,3.57
2017-07-03T10:02:25.320Z,2.40
2017-07-03T10:04:52.864Z,2.97
2017-07-03T10:07:20.404Z,2.63
2017-07-03T10:09:47.968Z,2.33
2017-07-03T10:12:15.493Z,2.57
2017-07-03T10:14:43.066Z,3.07
2017-07-03T10:17:10.754Z,2.90
2017-07-03T10:19:38.256Z,2.70
2017-07-03T10:22:05.794Z,2.50
2017-07-03T10:24:33.415Z,2.83
2017-07-03T10:27:00.894Z,2.53
2017-07-03T10:29:28.401Z,2.40
2017-07-03T10:31:55.942Z,2.77
2017-07-03T10:34:23.488Z,2.07
2017-07-03T10:36:51.029Z,2.23
2017-07-03T10:39:18.580Z,2.27
2017-07-03T10:41:46.120Z,2.47
2017-07-03T10:44:13.649Z,1.70
2017-07-03T10:46:41.906Z,2.60
2017-07-03T10:49:10.866Z,2.10
2017-07-03T10:51:38.377Z,1.83
2017-07-03T10:54:05.865Z,2.00
2017-07-03T10:56:34.129Z,2.63
2017-07-03T10:59:02.413Z,2.30
2017-07-03T11:01:29.949Z,2.33
2017-07-03T11:03:57.488Z,2.50
2017-07-03T11:06:25.036Z,2.40
2017-07-03T11:08:52.572Z,2.80
2017-07-03T11:11:20.117Z,2.30
2017-07-03T11:13:47.615Z,2.13
2017-07-03T11:16:15.105Z,2.27
2017-07-03T11:18:42.597Z,2.30
2017-07-03T11:21:10.300Z,2.20
2017-07-03T11:23:37.795Z,2.20
2017-07-03T11:26:05.405Z,2.43
2017-07-03T11:28:32.924Z,3.10
2017-07-03T11:31:00.459Z,2.40
2017-07-03T11:33:28.729Z,2.73
2017-07-03T11:35:56.275Z,2.80
2017-07-03T11:38:23.777Z,2.50
2017-07-03T11:40:51.357Z,3.07
2017-07-03T11:43:18.906Z,2.50
2017-07-03T11:45:46.544Z,2.50
2017-07-03T11:48:14.105Z,3.27
2017-07-03T11:50:41.649Z,2.67
2017-07-03T11:53:09.208Z,2.80
2017-07-03T11:55:36.718Z,2.30
2017-07-03T11:58:04.270Z,2.57
2017-07-03T12:00:31.745Z,2.60
2017-07-03T12:02:59.253Z,3.10
2017-07-03T12:05:26.808Z,2.37
2017-07-03T12:07:54.333Z,2.60
2017-07-03T12:10:21.808Z,2.70
2017-07-03T12:12:49.488Z,2.67
2017-07-03T12:15:16.994Z,2.57
2017-07-03T12:17:44.521Z,2.63
2017-07-03T12:20:12.020Z,2.67
2017-07-03T12:22:39.597Z,2.60
2017-07-03T12:25:07.156Z,2.20
2017-07-03T12:27:34.637Z,2.27
2017-07-03T12:30:02.162Z,2.77
2017-07-03T12:32:29.771Z,2.30
2017-07-03T12:34:57.253Z,2.30
2017-07-03T12:37:24.852Z,2.77
2017-07-03T12:39:53.220Z,2.53
2017-07-03T12:42:20.694Z,2.27
2017-07-03T12:44:48.209Z,1.97
2017-07-03T12:47:16.681Z,1.77
2017-07-03T12:49:44.189Z,2.50
2017-07-03T12:52:12.452Z,2.57
2017-07-03T12:54:40.746Z,2.60
2017-07-03T12:57:08.293Z,2.90
2017-07-03T12:59:35.785Z,2.30
2017-07-03T13:02:03.276Z,2.40
2017-07-03T13:04:30.753Z,1.83
2017-07-03T13:06:58.333Z,2.00
2017-07-03T13:09:26.573Z,1.83
2017-07-03T13:11:54.072Z,2.27
2017-07-03T13:14:21.593Z,1.73
2017-07-03T13:16:49.068Z,1.93
2017-07-03T13:19:16.552Z,1.77
2017-07-03T13:21:44.996Z,2.30
2017-07-03T13:24:12.480Z,1.87
2017-07-03T13:26:39.988Z,2.20
2017-07-03T13:29:07.505Z,2.10
2017-07-03T13:31:35.017Z,1.80
2017-07-03T13:34:02.552Z,1.80
2017-07-03T13:36:30.101Z,2.10
2017-07-03T13:38:57.648Z,1.97
2017-07-03T13:41:25.184Z,2.43
2017-07-03T13:43:52.730Z,1.83
2017-07-03T13:46:20.232Z,2.00
2017-07-03T13:48:47.817Z,2.87
2017-07-03T13:51:15.356Z,2.00
2017-07-03T13:53:43.119Z,2.40
2017-07-03T13:56:10.624Z,2.30
2017-07-03T13:58:38.932Z,2.20
2017-07-03T14:01:06.437Z,2.37
2017-07-03T14:03:34.688Z,2.30
2017-07-03T14:06:02.256Z,2.23
2017-07-03T14:08:29.736Z,2.10
2017-07-03T14:10:57.247Z,2.37
2017-07-03T14:13:24.793Z,2.27
2017-07-03T14:15:52.332Z,2.30
2017-07-03T14:18:20.080Z,2.47
2017-07-03T14:20:47.621Z,2.60
2017-07-03T14:23:16.392Z,2.30
2017-07-03T14:25:44.145Z,2.97
2017-07-03T14:28:11.634Z,2.70
2017-07-03T14:30:39.121Z,3.13
2017-07-03T14:33:06.682Z,2.33
2017-07-03T14:35:34.211Z,2.53
2017-07-03T14:38:01.761Z,2.70
2017-07-03T14:40:29.501Z,4.07
2017-07-03T14:42:57.764Z,2.73
2017-07-03T14:45:25.241Z,2.67
2017-07-03T14:47:52.753Z,3.07
2017-07-03T14:50:20.296Z,2.50
2017-07-03T14:52:47.833Z,2.70
2017-07-03T14:55:15.385Z,2.60
2017-07-03T14:57:42.898Z,2.70
2017-07-03T15:00:11.295Z,3.90
2017-07-03T15:02:38.781Z,3.40
2017-07-03T15:05:06.337Z,3.63
2017-07-03T15:07:33.861Z,3.10
2017-07-03T15:10:01.336Z,2.87
2017-07-03T15:12:28.842Z,3.00
2017-07-03T15:14:56.445Z,2.77
2017-07-03T15:17:23.987Z,3.40
2017-07-03T15:19:51.485Z,3.20
2017-07-03T15:22:18.972Z,3.20
2017-07-03T15:24:46.456Z,2.97
2017-07-03T15:27:13.997Z,2.83
2017-07-03T15:29:41.484Z,3.13
2017-07-03T15:32:09.747Z,3.30
2017-07-03T15:34:38.040Z,3.33
2017-07-03T15:37:05.552Z,3.03
2017-07-03T15:39:33.041Z,3.60
2017-07-03T15:42:00.553Z,3.40
2017-07-03T15:44:28.064Z,4.57
2017-07-03T15:46:55.625Z,3.43
2017-07-03T15:49:24.003Z,3.43
2017-07-03T15:51:51.721Z,3.30
2017-07-03T15:54:19.191Z,2.97
2017-07-03T15:56:46.734Z,3.37
2017-07-03T15:59:14.276Z,3.80
2017-07-03T16:01:41.841Z,3.40
2017-07-03T16:04:09.338Z,3.90
2017-07-03T16:06:37.652Z,3.50
2017-07-03T16:09:05.197Z,3.83
2017-07-03T16:11:32.676Z,3.30
2017-07-03T16:14:00.153Z,3.10
2017-07-03T16:16:27.672Z,3.87
2017-07-03T16:18:55.957Z,3.77
2017-07-03T16:21:23.500Z,3.83
2017-07-03T16:23:51.045Z,3.53
2017-07-03T16:26:18.580Z,2.93
2017-07-03T16:28:46.232Z,3.87
2017-07-03T16:31:13.780Z,3.50
2017-07-03T16:33:41.333Z,4.60
2017-07-03T16:36:08.877Z,3.57
2017-07-03T16:38:36.444Z,4.23
2017-07-03T16:41:03.960Z,3.83
2017-07-03T16:43:31.494Z,3.70
2017-07-03T16:45:59.133Z,3.73
2017-07-03T16:48:26.613Z,3.30
2017-07-03T16:50:54.127Z,3.90
2017-07-03T16:53:21.616Z,3.30
2017-07-03T16:55:49.104Z,4.07
2017-07-03T16:58:17.510Z,4.07
2017-07-03T17:00:44.990Z,3.40
2017-07-03T17:03:13.288Z,3.83
2017-07-03T17:05:40.987Z,3.70
2017-07-03T17:08:08.567Z,4.30
2017-07-03T17:10:36.125Z,3.70
2017-07-03T17:13:03.649Z,3.47
2017-07-03T17:15:31.193Z,3.33
2017-07-03T17:17:58.741Z,4.30
2017-07-03T17:20:26.481Z,4.03
2017-07-03T17:22:54.750Z,3.77
2017-07-03T17:25:22.229Z,3.47
2017-07-03T17:27:49.830Z,3.53
2017-07-03T17:30:17.514Z,3.77
2017-07-03T17:32:44.995Z,3.63
2017-07-03T17:35:13.268Z,4.60
2017-07-03T17:37:41.533Z,3.80
2017-07-03T17:40:09.916Z,4.20
2017-07-03T17:42:37.437Z,4.60
2017-07-03T17:45:06.405Z,4.10
2017-07-03T17:47:34.672Z,3.97
2017-07-03T17:50:02.918Z,4.00
2017-07-03T17:52:30.493Z,3.90
2017-07-03T17:54:58.037Z,4.40
2017-07-03T17:57:25.524Z,3.97
2017-07-03T17:59:53.021Z,4.60
2017-07-03T18:02:20.536Z,4.10
2017-07-03T18:04:48.780Z,4.30
2017-07-03T18:07:16.368Z,3.50
2017-07-03T18:09:43.876Z,4.27
2017-07-03T18:12:11.361Z,3.73
2017-07-03T18:14:38.852Z,3.70
2017-07-03T18:17:06.538Z,3.90
2017-07-03T18:19:34.023Z,4.30
2017-07-03T18:22:01.528Z,4.13
2017-07-03T18:24:29.168Z,3.50
2017-07-03T18:26:56.651Z,4.20
2017-07-03T18:29:24.152Z,4.13
2017-07-03T18:31:51.701Z,3.93
2017-07-03T18:34:20.852Z,5.37
2017-07-03T18:36:49.101Z,5.43
2017-07-03T18:39:16.614Z,4.63
2017-07-03T18:41:44.100Z,4.17
2017-07-03T18:44:12.363Z,3.93
2017-07-03T18:46:39.933Z,5.10
2017-07-03T18:49:07.448Z,4.10
2017-07-03T18:51:35.144Z,4.30
2017-07-03T18:56:22.932Z,4.80
2017-07-03T18:58:51.178Z,4.60
2017-07-03T19:01:18.748Z,4.60
2017-07-03T19:03:46.286Z,4.33
2017-07-03T19:06:13.796Z,5.03
2017-07-03T19:08:41.282Z,3.77
2017-07-03T19:11:08.765Z,4.53
2017-07-03T19:13:36.293Z,4.40
2017-07-03T19:16:03.781Z,4.23
2017-07-03T19:18:32.029Z,4.13
2017-07-03T19:20:59.679Z,3.63
2017-07-03T19:23:27.148Z,3.60
2017-07-03T19:25:54.623Z,4.73
2017-07-03T19:28:22.231Z,3.87
2017-07-03T19:30:49.768Z,3.10
2017-07-03T19:33:18.022Z,3.57
2017-07-03T19:35:46.328Z,4.17
2017-07-03T19:38:13.831Z,4.60
2017-07-03T19:40:41.323Z,4.13
2017-07-03T19:43:08.938Z,3.90
2017-07-03T19:45:36.434Z,4.20
2017-07-03T19:48:03.922Z,4.20
2017-07-03T19:50:31.448Z,4.07
2017-07-03T19:52:59.679Z,3.77
2017-07-03T19:55:27.247Z,4.07
2017-07-03T19:57:55.516Z,4.63
2017-07-03T20:00:23.005Z,4.57
2017-07-03T20:02:50.532Z,4.07
2017-07-03T20:05:18.004Z,4.83
2017-07-03T20:07:45.471Z,4.40
2017-07-03T20:10:13.754Z,4.27
2017-07-03T20:12:41.406Z,4.93
2017-07-03T20:15:08.942Z,4.80
2017-07-03T20:17:36.465Z,4.73
2017-07-03T20:20:04.748Z,5.03
2017-07-03T20:22:32.256Z,5.10
2017-07-03T20:24:59.737Z,4.87
2017-07-03T20:27:27.278Z,5.73
2017-07-03T20:29:54.844Z,5.13
2017-07-03T20:32:22.321Z,4.60
2017-07-03T20:34:49.793Z,4.97
2017-07-03T20:37:17.646Z,5.00
2017-07-03T20:39:45.221Z,4.90
2017-07-03T20:42:12.749Z,4.63
2017-07-03T20:44:40.256Z,4.90
2017-07-03T20:47:08.507Z,4.17
2017-07-03T20:49:36.139Z,4.60
2017-07-03T20:52:03.615Z,4.53
2017-07-03T20:54:31.866Z,4.43
2017-07-03T20:57:00.125Z,4.83
2017-07-03T20:59:28.401Z,4.40
2017-07-03T21:01:56.653Z,4.03
2017-07-03T21:04:24.902Z,4.10
2017-07-03T21:06:52.470Z,5.77
2017-07-03T21:09:19.968Z,4.43
2017-07-03T21:11:47.452Z,3.70
2017-07-03T21:14:14.932Z,4.20
2017-07-03T21:16:42.603Z,3.90
2017-07-03T21:19:10.865Z,3.60
2017-07-03T21:21:38.443Z,3.77
2017-07-03T21:24:05.958Z,3.93
2017-07-03T21:26:34.588Z,3.57
2017-07-03T21:29:02.097Z,3.73
2017-07-03T21:31:29.601Z,3.50
2017-07-03T21:33:57.084Z,3.77
2017-07-03T21:36:24.784Z,4.57
2017-07-03T21:38:52.251Z,4.00
2017-07-03T21:41:20.664Z,4.13
2017-07-03T21:43:48.176Z,4.10
2017-07-03T21:46:16.549Z,3.53
2017-07-03T21:48:44.065Z,3.60
2017-07-03T21:51:12.341Z,3.87
2017-07-03T21:53:39.855Z,4.70
2017-07-03T21:56:08.165Z,3.67
2017-07-03T21:58:35.714Z,3.60
2017-07-03T22:01:03.196Z,3.03
2017-07-03T22:03:30.676Z,4.00
2017-07-03T22:05:58.708Z,4.10
2017-07-03T22:08:26.273Z,3.80
2017-07-03T22:10:53.816Z,3.40
2017-07-03T22:13:22.284Z,4.30
2017-07-03T22:15:49.777Z,4.00
2017-07-03T22:18:17.269Z,3.40
2017-07-03T22:20:44.828Z,4.10
2017-07-03T22:23:12.407Z,4.30
2017-07-03T22:25:40.219Z,4.23
2017-07-03T22:28:07.733Z,4.10
2017-07-03T22:30:36.292Z,4.10
2017-07-03T22:33:04.717Z,4.07
2017-07-03T22:35:32.201Z,4.40
2017-07-03T22:37:59.680Z,4.10
2017-07-03T22:40:27.416Z,4.20
2017-07-03T22:42:54.892Z,4.93
2017-07-03T22:45:22.497Z,4.10
2017-07-03T22:47:50.074Z,4.87
2017-07-03T22:50:17.543Z,4.33
2017-07-03T22:52:45.017Z,3.90
2017-07-03T22:55:13.319Z,4.30
2017-07-03T22:57:40.828Z,4.53
2017-07-03T23:00:08.348Z,5.03
2017-07-03T23:02:36.644Z,4.20
2017-07-03T23:05:04.202Z,4.10
2017-07-03T23:07:31.689Z,4.10
2017-07-03T23:09:59.266Z,4.63
2017-07-03T23:12:26.808Z,4.10
2017-07-03T23:14:54.571Z,4.63
2017-07-03T23:17:22.104Z,4.70
2017-07-03T23:19:49.581Z,4.90
2017-07-03T23:22:17.197Z,4.70
2017-07-03T23:24:44.697Z,3.73
2017-07-03T23:27:12.193Z,4.70
2017-07-03T23:29:39.709Z,4.07
2017-07-03T23:32:07.968Z,5.00
2017-07-03T23:34:35.467Z,5.07
2017-07-03T23:37:03.005Z,5.13
2017-07-03T23:39:30.505Z,4.03
2017-07-03T23:41:58.049Z,4.50
2017-07-03T23:44:25.587Z,5.53
2017-07-03T23:46:53.948Z,4.03
2017-07-03T23:49:21.497Z,4.93
2017-07-03T23:51:48.998Z,4.23
2017-07-03T23:54:16.471Z,4.53
2017-07-03T23:56:44.749Z,4.83
2017-07-03T23:59:12.279Z,4.00
